sensor_id;sensor_type;location;lat;lon;timestamp;pressure;altitude;pressure_sealevel;temperature;humidity
69717;BME280;65362;46.144;19.666;2022-11-20T00:01:17;99666.41;;;23.04;44.97
69717;BME280;65362;46.144;19.666;2022-11-20T00:03:45;99679.88;;;23.07;44.63
69717;BME280;65362;46.144;19.666;2022-11-20T00:06:16;99669.59;;;23.16;44.85
69717;BME280;65362;46.144;19.666;2022-11-20T00:08:45;99661.63;;;23.13;44.59
69717;BME280;65362;46.144;19.666;2022-11-20T00:11:20;99645.72;;;23.15;44.85
69717;BME280;65362;46.144;19.666;2022-11-20T00:13:51;99634.97;;;23.12;44.73
69717;BME280;65362;46.144;19.666;2022-11-20T00:16:22;99640.31;;;23.13;44.42
69717;BME280;65362;46.144;19.666;2022-11-20T00:18:50;99633.06;;;23.12;44.55
69717;BME280;65362;46.144;19.666;2022-11-20T00:21:26;99636.69;;;23.13;44.90
69717;BME280;65362;46.144;19.666;2022-11-20T00:23:54;99642.22;;;23.13;44.58
69717;BME280;65362;46.144;19.666;2022-11-20T00:26:24;99635.28;;;23.17;44.52
69717;BME280;65362;46.144;19.666;2022-11-20T00:28:54;99634.63;;;23.15;44.76
69717;BME280;65362;46.144;19.666;2022-11-20T00:31:22;99640.66;;;23.18;44.53
69717;BME280;65362;46.144;19.666;2022-11-20T00:33:50;99637.00;;;23.18;44.49
69717;BME280;65362;46.144;19.666;2022-11-20T00:36:22;99634.63;;;23.15;44.86
69717;BME280;65362;46.144;19.666;2022-11-20T00:38:51;99625.34;;;23.22;44.61
69717;BME280;65362;46.144;19.666;2022-11-20T00:41:20;99604.63;;;23.18;44.52
69717;BME280;65362;46.144;19.666;2022-11-20T00:43:47;99598.50;;;23.23;44.28
69717;BME280;65362;46.144;19.666;2022-11-20T00:46:17;99593.81;;;23.23;44.40
69717;BME280;65362;46.144;19.666;2022-11-20T00:48:45;99604.81;;;23.17;44.73
69717;BME280;65362;46.144;19.666;2022-11-20T00:51:15;99601.06;;;23.24;44.27
69717;BME280;65362;46.144;19.666;2022-11-20T00:53:44;99589.97;;;23.24;44.39
69717;BME280;65362;46.144;19.666;2022-11-20T00:56:13;99572.31;;;23.25;44.41
69717;BME280;65362;46.144;19.666;2022-11-20T00:58:43;99580.63;;;23.25;44.56
69717;BME280;65362;46.144;19.666;2022-11-20T01:03:42;99587.19;;;23.24;44.66
69717;BME280;65362;46.144;19.666;2022-11-20T01:06:16;99593.22;;;23.28;44.47
69717;BME280;65362;46.144;19.666;2022-11-20T01:08:44;99599.63;;;23.28;44.24
69717;BME280;65362;46.144;19.666;2022-11-20T01:11:15;99607.06;;;23.28;44.38
69717;BME280;65362;46.144;19.666;2022-11-20T01:13:43;99619.88;;;23.29;44.24
69717;BME280;65362;46.144;19.666;2022-11-20T01:18:43;99617.09;;;23.29;44.21
69717;BME280;65362;46.144;19.666;2022-11-20T01:21:16;99616.91;;;23.30;44.44
69717;BME280;65362;46.144;19.666;2022-11-20T01:23:44;99610.91;;;23.27;44.31
69717;BME280;65362;46.144;19.666;2022-11-20T01:26:15;99602.22;;;23.30;44.47
69717;BME280;65362;46.144;19.666;2022-11-20T01:28:43;99580.88;;;23.30;44.17
69717;BME280;65362;46.144;19.666;2022-11-20T01:31:24;99566.38;;;23.28;44.44
69717;BME280;65362;46.144;19.666;2022-11-20T01:33:55;99561.50;;;23.30;44.13
69717;BME280;65362;46.144;19.666;2022-11-20T01:36:25;99570.44;;;23.32;43.99
69717;BME280;65362;46.144;19.666;2022-11-20T01:38:56;99581.75;;;23.31;44.24
69717;BME280;65362;46.144;19.666;2022-11-20T01:41:25;99583.06;;;23.35;44.43
69717;BME280;65362;46.144;19.666;2022-11-20T01:44:12;99567.69;;;23.32;44.43
69717;BME280;65362;46.144;19.666;2022-11-20T01:47:04;99551.94;;;23.33;44.37
69717;BME280;65362;46.144;19.666;2022-11-20T01:49:44;99547.03;;;23.35;44.13
69717;BME280;65362;46.144;19.666;2022-11-20T01:52:17;99530.22;;;23.36;44.06
69717;BME280;65362;46.144;19.666;2022-11-20T01:54:56;99528.50;;;23.35;43.91
69717;BME280;65362;46.144;19.666;2022-11-20T01:57:28;99519.97;;;23.37;44.23
69717;BME280;65362;46.144;19.666;2022-11-20T02:00:00;99502.50;;;23.36;43.82
69717;BME280;65362;46.144;19.666;2022-11-20T02:02:41;99502.97;;;23.40;44.38
69717;BME280;65362;46.144;19.666;2022-11-20T02:05:32;99495.72;;;23.39;43.99
69717;BME280;65362;46.144;19.666;2022-11-20T02:08:03;99494.84;;;23.38;44.04
69717;BME280;65362;46.144;19.666;2022-11-20T02:10:32;99514.91;;;23.40;44.33
69717;BME280;65362;46.144;19.666;2022-11-20T02:13:00;99523.91;;;23.42;43.78
69717;BME280;65362;46.144;19.666;2022-11-20T02:15:46;99530.28;;;23.43;44.17
69717;BME280;65362;46.144;19.666;2022-11-20T02:18:16;99546.91;;;23.43;44.15
69717;BME280;65362;46.144;19.666;2022-11-20T02:20:48;99528.09;;;23.38;43.79
69717;BME280;65362;46.144;19.666;2022-11-20T02:23:39;99528.56;;;23.42;43.82
69717;BME280;65362;46.144;19.666;2022-11-20T02:26:12;99541.38;;;23.43;43.99
69717;BME280;65362;46.144;19.666;2022-11-20T02:28:41;99543.31;;;23.42;43.69
69717;BME280;65362;46.144;19.666;2022-11-20T02:31:09;99549.50;;;23.44;43.74
69717;BME280;65362;46.144;19.666;2022-11-20T02:33:36;99547.38;;;23.46;43.75
69717;BME280;65362;46.144;19.666;2022-11-20T02:36:04;99549.50;;;23.44;43.61
69717;BME280;65362;46.144;19.666;2022-11-20T02:38:31;99547.19;;;23.48;43.92
69717;BME280;65362;46.144;19.666;2022-11-20T02:40:59;99525.66;;;23.50;43.49
69717;BME280;65362;46.144;19.666;2022-11-20T02:43:26;99534.63;;;23.52;43.61
69717;BME280;65362;46.144;19.666;2022-11-20T02:45:54;99536.75;;;23.50;43.82
69717;BME280;65362;46.144;19.666;2022-11-20T02:48:21;99536.56;;;23.51;43.42
69717;BME280;65362;46.144;19.666;2022-11-20T02:50:51;99536.56;;;23.51;43.69
69717;BME280;65362;46.144;19.666;2022-11-20T02:53:18;99539.13;;;23.53;43.65
69717;BME280;65362;46.144;19.666;2022-11-20T02:55:46;99547.25;;;23.54;43.51
69717;BME280;65362;46.144;19.666;2022-11-20T02:58:14;99555.09;;;23.51;43.31
69717;BME280;65362;46.144;19.666;2022-11-20T03:00:41;99552.97;;;23.53;43.72
69717;BME280;65362;46.144;19.666;2022-11-20T03:03:09;99557.50;;;23.54;43.50
69717;BME280;65362;46.144;19.666;2022-11-20T03:05:36;99561.56;;;23.58;43.43
69717;BME280;65362;46.144;19.666;2022-11-20T03:08:04;99578.22;;;23.58;43.45
69717;BME280;65362;46.144;19.666;2022-11-20T03:10:31;99579.09;;;23.58;43.36
69717;BME280;65362;46.144;19.666;2022-11-20T03:12:59;99577.56;;;23.56;43.13
69717;BME280;65362;46.144;19.666;2022-11-20T03:15:26;99581.84;;;23.58;43.01
69717;BME280;65362;46.144;19.666;2022-11-20T03:17:54;99581.84;;;23.58;43.49
69717;BME280;65362;46.144;19.666;2022-11-20T03:20:22;99576.09;;;23.60;43.23
69717;BME280;65362;46.144;19.666;2022-11-20T03:22:50;99574.19;;;23.60;43.13
69717;BME280;65362;46.144;19.666;2022-11-20T03:25:18;99565.00;;;23.60;43.49
69717;BME280;65362;46.144;19.666;2022-11-20T03:27:45;99564.81;;;23.61;43.13
69717;BME280;65362;46.144;19.666;2022-11-20T03:30:13;99554.59;;;23.62;43.07
69717;BME280;65362;46.144;19.666;2022-11-20T03:32:41;99546.28;;;23.62;43.25
69717;BME280;65362;46.144;19.666;2022-11-20T03:35:09;99527.69;;;23.62;42.87
69717;BME280;65362;46.144;19.666;2022-11-20T03:37:37;99544.53;;;23.61;43.27
69717;BME280;65362;46.144;19.666;2022-11-20T03:40:05;99555.25;;;23.64;43.27
69717;BME280;65362;46.144;19.666;2022-11-20T03:42:32;99556.97;;;23.65;43.00
69717;BME280;65362;46.144;19.666;2022-11-20T03:45:14;99566.34;;;23.64;43.08
69717;BME280;65362;46.144;19.666;2022-11-20T03:47:42;99561.25;;;23.67;42.81
69717;BME280;65362;46.144;19.666;2022-11-20T03:50:12;99557.59;;;23.67;42.71
69717;BME280;65362;46.144;19.666;2022-11-20T03:52:41;99564.03;;;23.67;43.16
69717;BME280;65362;46.144;19.666;2022-11-20T03:55:09;99572.34;;;23.67;42.91
69717;BME280;65362;46.144;19.666;2022-11-20T03:57:36;99574.91;;;23.69;43.19
69717;BME280;65362;46.144;19.666;2022-11-20T04:00:05;99570.41;;;23.68;43.11
69717;BME280;65362;46.144;19.666;2022-11-20T04:02:32;99562.75;;;23.70;42.87
69717;BME280;65362;46.144;19.666;2022-11-20T04:05:00;99557.41;;;23.68;43.17
69717;BME280;65362;46.144;19.666;2022-11-20T04:07:27;99552.34;;;23.72;43.06
69717;BME280;65362;46.144;19.666;2022-11-20T04:09:55;99539.53;;;23.71;43.00
69717;BME280;65362;46.144;19.666;2022-11-20T04:12:22;99522.88;;;23.71;42.76
69717;BME280;65362;46.144;19.666;2022-11-20T04:14:49;99517.72;;;23.68;43.01
69717;BME280;65362;46.144;19.666;2022-11-20T04:17:17;99517.94;;;23.66;42.62
69717;BME280;65362;46.144;19.666;2022-11-20T04:19:44;99519.06;;;23.72;43.01
69717;BME280;65362;46.144;19.666;2022-11-20T04:22:12;99535.47;;;23.73;42.68
69717;BME280;65362;46.144;19.666;2022-11-20T04:24:39;99550.22;;;23.74;42.78
69717;BME280;65362;46.144;19.666;2022-11-20T04:27:07;99559.41;;;23.74;42.93
69717;BME280;65362;46.144;19.666;2022-11-20T04:29:34;99565.59;;;23.76;42.51
69717;BME280;65362;46.144;19.666;2022-11-20T04:32:02;99557.47;;;23.75;42.76
69717;BME280;65362;46.144;19.666;2022-11-20T04:34:29;99560.06;;;23.76;42.64
69717;BME280;65362;46.144;19.666;2022-11-20T04:36:57;99550.66;;;23.77;42.41
69717;BME280;65362;46.144;19.666;2022-11-20T04:39:24;99549.81;;;23.77;42.62
69717;BME280;65362;46.144;19.666;2022-11-20T04:41:51;99558.13;;;23.77;42.69
69717;BME280;65362;46.144;19.666;2022-11-20T04:44:38;99546.84;;;23.78;42.48
69717;BME280;65362;46.144;19.666;2022-11-20T04:47:05;99534.03;;;23.77;42.49
69717;BME280;65362;46.144;19.666;2022-11-20T04:49:33;99535.56;;;23.80;42.85
69717;BME280;65362;46.144;19.666;2022-11-20T04:52:01;99536.63;;;23.79;42.42
69717;BME280;65362;46.144;19.666;2022-11-20T04:54:28;99517.84;;;23.81;42.41
69717;BME280;65362;46.144;19.666;2022-11-20T04:56:56;99505.03;;;23.80;42.26
69717;BME280;65362;46.144;19.666;2022-11-20T04:59:23;99493.94;;;23.80;42.41
69717;BME280;65362;46.144;19.666;2022-11-20T05:01:51;99495.00;;;23.79;42.47
69717;BME280;65362;46.144;19.666;2022-11-20T05:04:19;99490.13;;;23.81;42.34
69717;BME280;65362;46.144;19.666;2022-11-20T05:06:46;99486.28;;;23.82;42.81
69717;BME280;65362;46.144;19.666;2022-11-20T05:09:14;99490.75;;;23.83;42.40
69717;BME280;65362;46.144;19.666;2022-11-20T05:11:41;99507.41;;;23.83;42.40
69717;BME280;65362;46.144;19.666;2022-11-20T05:14:08;99511.72;;;23.85;42.50
69717;BME280;65362;46.144;19.666;2022-11-20T05:16:36;99490.38;;;23.86;42.70
69717;BME280;65362;46.144;19.666;2022-11-20T05:19:03;99478.44;;;23.85;42.75
69717;BME280;65362;46.144;19.666;2022-11-20T05:21:31;99470.13;;;23.85;42.40
69717;BME280;65362;46.144;19.666;2022-11-20T05:24:02;99478.59;;;23.84;42.74
69717;BME280;65362;46.144;19.666;2022-11-20T05:26:29;99489.34;;;23.87;42.56
69717;BME280;65362;46.144;19.666;2022-11-20T05:28:57;99499.38;;;23.88;42.46
69717;BME280;65362;46.144;19.666;2022-11-20T05:31:25;99504.25;;;23.86;42.75
69717;BME280;65362;46.144;19.666;2022-11-20T05:33:56;99506.63;;;23.89;42.70
69717;BME280;65362;46.144;19.666;2022-11-20T05:36:24;99504.06;;;23.87;42.52
69717;BME280;65362;46.144;19.666;2022-11-20T05:38:51;99500.22;;;23.88;42.63
69717;BME280;65362;46.144;19.666;2022-11-20T05:41:24;99498.31;;;23.89;42.57
69717;BME280;65362;46.144;19.666;2022-11-20T05:43:52;99497.44;;;23.88;42.36
69717;BME280;65362;46.144;19.666;2022-11-20T05:46:20;99493.41;;;23.91;42.30
69717;BME280;65362;46.144;19.666;2022-11-20T05:48:56;99505.56;;;23.90;42.29
69717;BME280;65362;46.144;19.666;2022-11-20T05:51:24;99509.00;;;23.92;42.04
69717;BME280;65362;46.144;19.666;2022-11-20T05:53:52;99509.22;;;23.90;42.46
69717;BME280;65362;46.144;19.666;2022-11-20T05:56:21;99519.03;;;23.93;42.19
69717;BME280;65362;46.144;19.666;2022-11-20T05:58:49;99532.06;;;23.92;42.06
69717;BME280;65362;46.144;19.666;2022-11-20T06:01:22;99548.72;;;23.92;42.21
69717;BME280;65362;46.144;19.666;2022-11-20T06:03:50;99548.72;;;23.92;42.56
69717;BME280;65362;46.144;19.666;2022-11-20T06:06:19;99552.53;;;23.91;42.30
69717;BME280;65362;46.144;19.666;2022-11-20T06:08:47;99554.91;;;23.94;42.44
69717;BME280;65362;46.144;19.666;2022-11-20T06:11:16;99556.81;;;23.94;42.25
69717;BME280;65362;46.144;19.666;2022-11-20T06:13:45;99565.81;;;23.96;42.52
69717;BME280;65362;46.144;19.666;2022-11-20T06:16:15;99558.56;;;23.95;41.91
69717;BME280;65362;46.144;19.666;2022-11-20T06:18:43;99556.63;;;23.95;42.21
69717;BME280;65362;46.144;19.666;2022-11-20T06:21:13;99561.09;;;23.96;42.19
69717;BME280;65362;46.144;19.666;2022-11-20T06:23:41;99552.13;;;23.94;42.24
69717;BME280;65362;46.144;19.666;2022-11-20T06:26:11;99548.94;;;23.97;42.18
69717;BME280;65362;46.144;19.666;2022-11-20T06:28:39;99548.94;;;23.97;42.30
69717;BME280;65362;46.144;19.666;2022-11-20T06:31:07;99544.28;;;23.98;42.06
69717;BME280;65362;46.144;19.666;2022-11-20T06:33:37;99552.13;;;23.94;42.33
69717;BME280;65362;46.144;19.666;2022-11-20T06:36:05;99554.50;;;23.97;42.25
69717;BME280;65362;46.144;19.666;2022-11-20T06:38:38;99548.09;;;23.97;42.03
69717;BME280;65362;46.144;19.666;2022-11-20T06:41:07;99549.16;;;23.96;42.08
69717;BME280;65362;46.144;19.666;2022-11-20T06:43:37;99558.97;;;23.98;42.03
69717;BME280;65362;46.144;19.666;2022-11-20T06:46:04;99556.22;;;23.98;42.22
69717;BME280;65362;46.144;19.666;2022-11-20T06:48:32;99563.69;;;23.98;42.36
69717;BME280;65362;46.144;19.666;2022-11-20T06:50:59;99564.75;;;23.97;41.98
69717;BME280;65362;46.144;19.666;2022-11-20T06:53:30;99569.88;;;24.00;42.08
69717;BME280;65362;46.144;19.666;2022-11-20T06:55:57;99567.97;;;24.00;41.95
69717;BME280;65362;46.144;19.666;2022-11-20T06:58:29;99575.63;;;23.98;42.10
69717;BME280;65362;46.144;19.666;2022-11-20T07:00:58;99580.16;;;23.99;41.71
69717;BME280;65362;46.144;19.666;2022-11-20T07:03:26;99582.91;;;23.99;41.91
69717;BME280;65362;46.144;19.666;2022-11-20T07:05:57;99594.84;;;24.00;41.89
69717;BME280;65362;46.144;19.666;2022-11-20T07:08:25;99604.25;;;23.99;42.07
69717;BME280;65362;46.144;19.666;2022-11-20T07:10:56;99609.59;;;24.00;41.79
69717;BME280;65362;46.144;19.666;2022-11-20T07:13:24;99616.22;;;23.99;41.84
69717;BME280;65362;46.144;19.666;2022-11-20T07:15:51;99622.59;;;24.00;42.09
69717;BME280;65362;46.144;19.666;2022-11-20T07:18:19;99612.56;;;23.99;41.94
69717;BME280;65362;46.144;19.666;2022-11-20T07:20:46;99612.38;;;24.00;42.11
69717;BME280;65362;46.144;19.666;2022-11-20T07:23:14;99604.25;;;23.99;41.66
69717;BME280;65362;46.144;19.666;2022-11-20T07:25:41;99600.41;;;24.00;41.75
69717;BME280;65362;46.144;19.666;2022-11-20T07:28:09;99604.06;;;24.00;41.72
69717;BME280;65362;46.144;19.666;2022-11-20T07:30:37;99610.44;;;24.01;41.75
69717;BME280;65362;46.144;19.666;2022-11-20T07:33:05;99615.16;;;24.00;41.82
69717;BME280;65362;46.144;19.666;2022-11-20T07:35:32;99619.81;;;24.00;42.14
69717;BME280;65362;46.144;19.666;2022-11-20T07:38:00;99622.78;;;23.98;41.87
69717;BME280;65362;46.144;19.666;2022-11-20T07:40:27;99623.47;;;24.00;41.74
69717;BME280;65362;46.144;19.666;2022-11-20T07:42:55;99623.66;;;23.99;41.73
69717;BME280;65362;46.144;19.666;2022-11-20T07:45:24;99631.78;;;24.00;41.55
69717;BME280;65362;46.144;19.666;2022-11-20T07:47:51;99630.75;;;24.01;41.97
69717;BME280;65362;46.144;19.666;2022-11-20T07:50:19;99645.44;;;24.02;41.44
69717;BME280;65362;46.144;19.666;2022-11-20T07:52:47;99633.88;;;23.98;41.80
69717;BME280;65362;46.144;19.666;2022-11-20T07:55:15;99637.53;;;23.99;41.75
69717;BME280;65362;46.144;19.666;2022-11-20T07:57:42;99635.41;;;24.01;41.66
69717;BME280;65362;46.144;19.666;2022-11-20T08:00:10;99630.94;;;24.00;41.80
69717;BME280;65362;46.144;19.666;2022-11-20T08:02:40;99630.09;;;23.99;41.61
69717;BME280;65362;46.144;19.666;2022-11-20T08:05:08;99637.34;;;24.00;41.68
69717;BME280;65362;46.144;19.666;2022-11-20T08:07:41;99648.44;;;24.00;41.60
69717;BME280;65362;46.144;19.666;2022-11-20T08:10:11;99653.13;;;24.00;41.66
69717;BME280;65362;46.144;19.666;2022-11-20T08:12:49;99657.16;;;23.97;41.60
69717;BME280;65362;46.144;19.666;2022-11-20T08:15:37;99650.75;;;23.97;41.68
69717;BME280;65362;46.144;19.666;2022-11-20T08:18:10;99639.84;;;23.95;41.86
69717;BME280;65362;46.144;19.666;2022-11-20T08:21:03;99642.22;;;23.98;41.98
69717;BME280;65362;46.144;19.666;2022-11-20T08:23:31;99633.25;;;23.96;42.04
69717;BME280;65362;46.144;19.666;2022-11-20T08:25:58;99630.75;;;24.01;42.23
69717;BME280;65362;46.144;19.666;2022-11-20T08:28:26;99636.09;;;24.03;42.47
69717;BME280;65362;46.144;19.666;2022-11-20T08:30:58;99629.03;;;24.00;43.27
69717;BME280;65362;46.144;19.666;2022-11-20T08:33:27;99627.56;;;24.04;43.17
69717;BME280;65362;46.144;19.666;2022-11-20T08:36:02;99594.91;;;24.06;43.77
69717;BME280;65362;46.144;19.666;2022-11-20T08:38:30;99594.06;;;24.06;43.28
69717;BME280;65362;46.144;19.666;2022-11-20T08:40:59;99618.44;;;24.10;43.84
69717;BME280;65362;46.144;19.666;2022-11-20T08:43:45;99622.22;;;24.03;42.91
69717;BME280;65362;46.144;19.666;2022-11-20T08:46:12;99629.88;;;24.01;43.14
69717;BME280;65362;46.144;19.666;2022-11-20T08:48:40;99618.38;;;24.04;43.39
69717;BME280;65362;46.144;19.666;2022-11-20T08:51:08;99633.38;;;24.09;43.33
69717;BME280;65362;46.144;19.666;2022-11-20T08:53:36;99669.63;;;24.08;42.71
69717;BME280;65362;46.144;19.666;2022-11-20T08:56:04;99687.41;;;24.13;43.60
69717;BME280;65362;46.144;19.666;2022-11-20T08:58:31;99716.03;;;24.14;44.27
69717;BME280;65362;46.144;19.666;2022-11-20T09:01:19;99724.53;;;24.12;43.98
69717;BME280;65362;46.144;19.666;2022-11-20T09:03:47;99733.34;;;24.16;43.85
69717;BME280;65362;46.144;19.666;2022-11-20T09:06:15;99733.34;;;24.16;44.38
69717;BME280;65362;46.144;19.666;2022-11-20T09:08:43;99734.19;;;24.16;44.54
69717;BME280;65362;46.144;19.666;2022-11-20T09:11:10;99724.63;;;24.19;44.54
69717;BME280;65362;46.144;19.666;2022-11-20T09:13:38;99725.06;;;24.22;44.34
69717;BME280;65362;46.144;19.666;2022-11-20T09:16:07;99723.34;;;24.21;44.58
69717;BME280;65362;46.144;19.666;2022-11-20T09:18:36;99703.53;;;24.24;44.58
69717;BME280;65362;46.144;19.666;2022-11-20T09:21:07;99703.13;;;24.27;45.33
69717;BME280;65362;46.144;19.666;2022-11-20T09:23:38;99705.78;;;24.35;45.21
69717;BME280;65362;46.144;19.666;2022-11-20T09:26:12;99710.03;;;24.31;45.44
69717;BME280;65362;46.144;19.666;2022-11-20T09:28:40;99712.38;;;24.34;45.14
69717;BME280;65362;46.144;19.666;2022-11-20T09:31:11;99728.16;;;24.34;45.23
69717;BME280;65362;46.144;19.666;2022-11-20T09:33:44;99726.25;;;24.34;45.53
69717;BME280;65362;46.144;19.666;2022-11-20T09:36:12;99733.53;;;24.35;45.41
69717;BME280;65362;46.144;19.666;2022-11-20T09:38:39;99727.31;;;24.33;45.57
69717;BME280;65362;46.144;19.666;2022-11-20T09:47:11;99732.66;;;24.35;45.61
69717;BME280;65362;46.144;19.666;2022-11-20T09:50:02;99708.13;;;24.38;45.86
69717;BME280;65362;46.144;19.666;2022-11-20T09:55:16;99699.34;;;24.35;46.00
69717;BME280;65362;46.144;19.666;2022-11-20T09:57:46;99694.06;;;24.40;45.71
69717;BME280;65362;46.144;19.666;2022-11-20T10:00:16;99695.59;;;24.42;45.64
69717;BME280;65362;46.144;19.666;2022-11-20T10:03:00;99698.38;;;24.42;45.92
69717;BME280;65362;46.144;19.666;2022-11-20T10:05:45;99692.16;;;24.40;45.45
69717;BME280;65362;46.144;19.666;2022-11-20T10:08:22;99690.81;;;24.36;46.01
69717;BME280;65362;46.144;19.666;2022-11-20T10:11:26;99684.22;;;24.37;45.55
69717;BME280;65362;46.144;19.666;2022-11-20T10:17:03;99676.28;;;24.34;45.39
69717;BME280;65362;46.144;19.666;2022-11-20T10:22:40;99695.06;;;24.32;45.19
69717;BME280;65362;46.144;19.666;2022-11-20T10:25:39;99711.72;;;24.32;45.57
69717;BME280;65362;46.144;19.666;2022-11-20T10:28:18;99711.72;;;24.32;45.50
69717;BME280;65362;46.144;19.666;2022-11-20T10:30:59;99706.56;;;24.29;45.46
69717;BME280;65362;46.144;19.666;2022-11-20T10:33:32;99708.28;;;24.30;45.52
69717;BME280;65362;46.144;19.666;2022-11-20T10:36:29;99702.94;;;24.29;45.61
69717;BME280;65362;46.144;19.666;2022-11-20T10:39:03;99685.88;;;24.32;45.86
69717;BME280;65362;46.144;19.666;2022-11-20T10:41:38;99678.81;;;24.29;45.64
69717;BME280;65362;46.144;19.666;2022-11-20T10:44:28;99689.25;;;24.27;45.32
69717;BME280;65362;46.144;19.666;2022-11-20T10:47:18;99709.56;;;24.28;45.88
69717;BME280;65362;46.144;19.666;2022-11-20T10:49:48;99711.28;;;24.29;45.71
69717;BME280;65362;46.144;19.666;2022-11-20T10:57:53;99719.78;;;24.27;45.68
69717;BME280;65362;46.144;19.666;2022-11-20T11:00:25;99724.50;;;24.27;45.94
69717;BME280;65362;46.144;19.666;2022-11-20T11:02:54;99714.22;;;24.27;45.85
69717;BME280;65362;46.144;19.666;2022-11-20T11:05:32;99716.34;;;24.25;45.54
69717;BME280;65362;46.144;19.666;2022-11-20T11:08:02;99701.41;;;24.26;45.34
69717;BME280;65362;46.144;19.666;2022-11-20T11:10:37;99689.91;;;24.29;45.54
69717;BME280;65362;46.144;19.666;2022-11-20T11:13:20;99681.38;;;24.31;45.53
69717;BME280;65362;46.144;19.666;2022-11-20T11:15:48;99687.34;;;24.28;45.34
69717;BME280;65362;46.144;19.666;2022-11-20T11:18:30;99701.00;;;24.29;45.16
69717;BME280;65362;46.144;19.666;2022-11-20T11:21:04;99688.00;;;24.30;45.54
69717;BME280;65362;46.144;19.666;2022-11-20T11:23:42;99690.97;;;24.28;46.07
69717;BME280;65362;46.144;19.666;2022-11-20T11:26:21;99690.78;;;24.30;46.22
69717;BME280;65362;46.144;19.666;2022-11-20T11:29:04;99707.84;;;24.27;46.00
69717;BME280;65362;46.144;19.666;2022-11-20T11:31:34;99699.28;;;24.28;45.99
69717;BME280;65362;46.144;19.666;2022-11-20T11:34:10;99701.47;;;24.33;45.95
69717;BME280;65362;46.144;19.666;2022-11-20T11:36:38;99697.38;;;24.29;46.10
69717;BME280;65362;46.144;19.666;2022-11-20T11:39:11;99705.78;;;24.35;45.90
69717;BME280;65362;46.144;19.666;2022-11-20T11:41:41;99701.88;;;24.30;46.22
69717;BME280;65362;46.144;19.666;2022-11-20T11:44:16;99710.66;;;24.33;46.41
69717;BME280;65362;46.144;19.666;2022-11-20T11:47:04;99712.78;;;24.31;46.64
69717;BME280;65362;46.144;19.666;2022-11-20T11:49:33;99714.28;;;24.34;45.98
69717;BME280;65362;46.144;19.666;2022-11-20T11:54:45;99709.75;;;24.26;45.67
69717;BME280;65362;46.144;19.666;2022-11-20T11:57:24;99706.97;;;24.26;45.67
69717;BME280;65362;46.144;19.666;2022-11-20T12:00:08;99707.63;;;24.28;45.53
69717;BME280;65362;46.144;19.666;2022-11-20T12:02:49;99720.66;;;24.28;45.41
69717;BME280;65362;46.144;19.666;2022-11-20T12:13:41;99696.88;;;24.19;45.50
69717;BME280;65362;46.144;19.666;2022-11-20T12:16:13;99698.59;;;24.20;45.50
69717;BME280;65362;46.144;19.666;2022-11-20T12:18:42;99691.09;;;24.20;45.71
69717;BME280;65362;46.144;19.666;2022-11-20T12:24:00;99698.59;;;24.20;45.63
69717;BME280;65362;46.144;19.666;2022-11-20T12:26:55;99690.25;;;24.20;45.36
69717;BME280;65362;46.144;19.666;2022-11-20T12:39:55;99688.09;;;24.15;45.19
69717;BME280;65362;46.144;19.666;2022-11-20T12:45:50;99697.25;;;24.16;45.29
69717;BME280;65362;46.144;19.666;2022-11-20T12:57:41;99686.75;;;24.11;45.01
69717;BME280;65362;46.144;19.666;2022-11-20T13:00:18;99677.59;;;24.11;44.86
69717;BME280;65362;46.144;19.666;2022-11-20T13:05:59;99691.25;;;24.12;45.20
69717;BME280;65362;46.144;19.666;2022-11-20T13:08:35;99687.34;;;24.07;44.91
69717;BME280;65362;46.144;19.666;2022-11-20T13:17:04;99701.88;;;24.09;44.87
69717;BME280;65362;46.144;19.666;2022-11-20T13:19:34;99710.19;;;24.09;45.10
69717;BME280;65362;46.144;19.666;2022-11-20T13:22:01;99709.25;;;24.02;44.92
69717;BME280;65362;46.144;19.666;2022-11-20T13:24:30;99708.66;;;24.06;44.74
69717;BME280;65362;46.144;19.666;2022-11-20T13:29:36;99700.94;;;24.02;44.85
69717;BME280;65362;46.144;19.666;2022-11-20T13:32:15;99697.78;;;24.05;44.66
69717;BME280;65362;46.144;19.666;2022-11-20T13:34:53;99711.00;;;24.03;44.63
69717;BME280;65362;46.144;19.666;2022-11-20T13:37:39;99712.91;;;24.02;44.76
69717;BME280;65362;46.144;19.666;2022-11-20T13:42:45;99718.94;;;24.06;44.41
69717;BME280;65362;46.144;19.666;2022-11-20T13:47:51;99703.94;;;24.00;44.56
69717;BME280;65362;46.144;19.666;2022-11-20T13:50:48;99710.78;;;24.04;44.64
69717;BME280;65362;46.144;19.666;2022-11-20T13:56:34;99740.19;;;23.99;44.50
69717;BME280;65362;46.144;19.666;2022-11-20T14:01:59;99747.00;;;23.96;44.53
69717;BME280;65362;46.144;19.666;2022-11-20T14:04:31;99749.56;;;23.98;44.54
69717;BME280;65362;46.144;19.666;2022-11-20T14:07:00;99745.56;;;24.00;44.65
69717;BME280;65362;46.144;19.666;2022-11-20T14:09:30;99736.63;;;24.05;44.74
69717;BME280;65362;46.144;19.666;2022-11-20T14:11:59;99734.34;;;24.08;44.19
69717;BME280;65362;46.144;19.666;2022-11-20T14:14:28;99738.34;;;24.06;44.56
69717;BME280;65362;46.144;19.666;2022-11-20T14:19:34;99741.53;;;24.03;44.63
69717;BME280;65362;46.144;19.666;2022-11-20T14:24:41;99735.56;;;24.06;44.63
69717;BME280;65362;46.144;19.666;2022-11-20T14:27:16;99738.75;;;24.03;44.35
69717;BME280;65362;46.144;19.666;2022-11-20T14:29:46;99737.88;;;24.02;44.77
69717;BME280;65362;46.144;19.666;2022-11-20T14:32:20;99723.53;;;23.99;44.94
69717;BME280;65362;46.144;19.666;2022-11-20T14:34:50;99735.75;;;24.04;44.86
69717;BME280;65362;46.144;19.666;2022-11-20T14:37:26;99730.22;;;24.04;44.74
69717;BME280;65362;46.144;19.666;2022-11-20T14:39:56;99719.53;;;24.01;45.35
69717;BME280;65362;46.144;19.666;2022-11-20T14:42:27;99721.25;;;24.02;45.39